SAS45C EKCH-EGCC
Flight info
| Callsign | SAS45C |
|---|---|
| Flight time | N/A |
| Altitude | 36000 |
| Route | ODDON DCT LESRA DCT ROPAL DCT TILNI |
| Aircraft | B738/M-SDE2E3FGHIRWXY/LB1 |
Departure
| Time | 2026-05-04 18:46 |
|---|---|
| Airport | Copenhagen Kastrup Airport (EKCH) |
Arrival
| Time | N/A |
|---|---|
| Airport | Manchester Airport (EGCC) |
| Time | Latitude | Longitude | Altitude | Speed | Heading |
|---|---|---|---|---|---|
| 2026-05-04 18:05 | 55.62425 | 12.64918 | 20 ft | 0 kts | 23° |
| 2026-05-04 18:37 | 55.62426 | 12.64919 | 20 ft | 1 kts | 22° |
| 2026-05-04 18:37 | 55.62436 | 12.64898 | 21 ft | 4 kts | 303° |
| 2026-05-04 18:37 | 55.62443 | 12.64854 | 19 ft | 4 kts | 283° |
| 2026-05-04 18:37 | 55.62449 | 12.64807 | 21 ft | 4 kts | 284° |
| 2026-05-04 18:38 | 55.62460 | 12.64770 | 21 ft | 4 kts | 319° |
| 2026-05-04 18:38 | 55.62478 | 12.64772 | 22 ft | 2 kts | 176° |
| 2026-05-04 18:42 | 55.62466 | 12.64773 | 20 ft | 9 kts | 176° |
| 2026-05-04 18:42 | 55.62394 | 12.64781 | 21 ft | 10 kts | 176° |
| 2026-05-04 18:43 | 55.62333 | 12.64732 | 22 ft | 10 kts | 238° |
| 2026-05-04 18:43 | 55.62304 | 12.64624 | 19 ft | 0 kts | 246° |
| 2026-05-04 18:43 | 55.62301 | 12.64611 | 18 ft | 2 kts | 246° |
| 2026-05-04 18:43 | 55.62294 | 12.64584 | 20 ft | 3 kts | 246° |
| 2026-05-04 18:44 | 55.62293 | 12.64579 | 19 ft | 0 kts | 246° |
| 2026-05-04 18:44 | 55.62275 | 12.64505 | 18 ft | 19 kts | 246° |
| 2026-05-04 18:44 | 55.62168 | 12.64316 | 17 ft | 26 kts | 208° |
| 2026-05-04 18:45 | 55.62011 | 12.64188 | 19 ft | 24 kts | 205° |
| 2026-05-04 18:45 | 55.61865 | 12.64071 | 27 ft | 23 kts | 189° |
| 2026-05-04 18:45 | 55.61753 | 12.64079 | 25 ft | 0 kts | 176° |
| 2026-05-04 18:45 | 55.61735 | 12.64081 | 29 ft | 13 kts | 176° |
| 2026-05-04 18:46 | 55.61590 | 12.64012 | 26 ft | 27 kts | 220° |
| 2026-05-04 18:46 | 55.61248 | 12.63474 | 25 ft | 114 kts | 222° |
| 2026-05-04 18:46 | 55.60424 | 12.62232 | 140 ft | 189 kts | 222° |
| 2026-05-04 18:46 | 55.59311 | 12.60632 | 831 ft | 223 kts | 223° |
| 2026-05-04 18:47 | 55.58151 | 12.58842 | 2231 ft | 216 kts | 224° |
| 2026-05-04 18:47 | 55.56974 | 12.56996 | 3111 ft | 240 kts | 225° |
| 2026-05-04 18:47 | 55.56026 | 12.54507 | 3877 ft | 248 kts | 255° |
| 2026-05-04 18:47 | 55.55883 | 12.51501 | 4955 ft | 247 kts | 276° |
| 2026-05-04 18:48 | 55.56147 | 12.48493 | 6015 ft | 249 kts | 280° |
| 2026-05-04 18:48 | 55.56483 | 12.45477 | 6971 ft | 252 kts | 280° |
| 2026-05-04 18:48 | 55.56818 | 12.42409 | 7904 ft | 256 kts | 279° |
| 2026-05-04 18:48 | 55.57143 | 12.39295 | 8880 ft | 259 kts | 279° |
| 2026-05-04 18:49 | 55.57461 | 12.36135 | 9833 ft | 262 kts | 279° |
| 2026-05-04 18:49 | 55.57782 | 12.32902 | 10499 ft | 276 kts | 279° |
| 2026-05-04 18:49 | 55.58072 | 12.29425 | 10725 ft | 302 kts | 275° |
| 2026-05-04 18:49 | 55.58223 | 12.25652 | 11351 ft | 312 kts | 272° |
| 2026-05-04 18:50 | 55.58329 | 12.21785 | 12216 ft | 316 kts | 272° |
| 2026-05-04 18:50 | 55.58312 | 12.17903 | 13099 ft | 319 kts | 259° |
| 2026-05-04 18:50 | 55.57593 | 12.14191 | 13961 ft | 323 kts | 247° |
| 2026-05-04 18:50 | 55.56623 | 12.10581 | 14735 ft | 326 kts | 245° |
| 2026-05-04 18:51 | 55.55921 | 12.06783 | 15440 ft | 329 kts | 266° |
| 2026-05-04 18:51 | 55.56290 | 12.02794 | 16230 ft | 334 kts | 288° |
| 2026-05-04 18:51 | 55.57180 | 11.98983 | 17034 ft | 337 kts | 290° |
| 2026-05-04 18:51 | 55.58003 | 11.95071 | 17763 ft | 341 kts | 285° |
| 2026-05-04 18:52 | 55.58619 | 11.91005 | 18459 ft | 344 kts | 281° |
| 2026-05-04 18:52 | 55.59042 | 11.86823 | 19102 ft | 347 kts | 277° |
| 2026-05-04 18:52 | 55.59327 | 11.82562 | 19749 ft | 351 kts | 275° |
| 2026-05-04 18:52 | 55.59528 | 11.78242 | 20374 ft | 354 kts | 273° |
| 2026-05-04 18:53 | 55.59681 | 11.73870 | 20993 ft | 358 kts | 272° |
| 2026-05-04 18:53 | 55.59812 | 11.69449 | 21604 ft | 362 kts | 272° |
| 2026-05-04 18:53 | 55.59934 | 11.64987 | 22209 ft | 366 kts | 272° |
| 2026-05-04 18:53 | 55.60053 | 11.60475 | 22809 ft | 369 kts | 272° |
| 2026-05-04 18:54 | 55.60173 | 11.55915 | 23386 ft | 373 kts | 272° |
| 2026-05-04 18:54 | 55.60293 | 11.51321 | 23891 ft | 376 kts | 272° |
| 2026-05-04 18:54 | 55.60414 | 11.46675 | 24380 ft | 379 kts | 272° |
| 2026-05-04 18:54 | 55.60533 | 11.41994 | 24866 ft | 382 kts | 272° |
| 2026-05-04 18:55 | 55.60615 | 11.37281 | 25325 ft | 385 kts | 269° |
| 2026-05-04 18:55 | 55.60356 | 11.27750 | 26243 ft | 391 kts | 265° |
| 2026-05-04 18:55 | 55.60163 | 11.22938 | 26678 ft | 394 kts | 265° |
| 2026-05-04 18:56 | 55.59973 | 11.18084 | 27110 ft | 397 kts | 266° |
| 2026-05-04 18:56 | 55.59793 | 11.13253 | 27536 ft | 400 kts | 266° |
| 2026-05-04 18:56 | 55.59617 | 11.08275 | 27951 ft | 403 kts | 266° |
| 2026-05-04 18:56 | 55.59447 | 11.03367 | 28350 ft | 405 kts | 266° |
| 2026-05-04 18:57 | 55.59276 | 10.98371 | 28739 ft | 408 kts | 266° |
| 2026-05-04 18:57 | 55.59102 | 10.93323 | 29122 ft | 411 kts | 266° |
| 2026-05-04 18:57 | 55.58926 | 10.88254 | 29494 ft | 414 kts | 266° |
| 2026-05-04 18:57 | 55.58746 | 10.83157 | 29857 ft | 417 kts | 266° |
| 2026-05-04 18:58 | 55.58563 | 10.78020 | 30168 ft | 420 kts | 266° |
| 2026-05-04 18:58 | 55.58378 | 10.72857 | 30494 ft | 421 kts | 266° |
| 2026-05-04 18:58 | 55.58189 | 10.67700 | 30921 ft | 420 kts | 266° |
| 2026-05-04 18:58 | 55.58015 | 10.62551 | 31378 ft | 418 kts | 267° |
| 2026-05-04 18:59 | 55.57919 | 10.57418 | 31765 ft | 418 kts | 268° |
| 2026-05-04 18:59 | 55.57864 | 10.52270 | 32129 ft | 419 kts | 269° |
| 2026-05-04 18:59 | 55.57821 | 10.47126 | 32526 ft | 418 kts | 269° |
| 2026-05-04 18:59 | 55.57775 | 10.41994 | 32944 ft | 417 kts | 269° |
| 2026-05-04 19:00 | 55.57722 | 10.36881 | 33347 ft | 416 kts | 269° |
| 2026-05-04 19:00 | 55.57661 | 10.31766 | 33731 ft | 416 kts | 269° |
| 2026-05-04 19:00 | 55.57595 | 10.26729 | 34075 ft | 415 kts | 269° |
| 2026-05-04 19:00 | 55.57522 | 10.21566 | 34410 ft | 414 kts | 269° |
| 2026-05-04 19:01 | 55.57447 | 10.16547 | 34741 ft | 413 kts | 268° |
| 2026-05-04 19:01 | 55.57368 | 10.11465 | 35054 ft | 413 kts | 268° |
| 2026-05-04 19:01 | 55.57287 | 10.06395 | 35335 ft | 413 kts | 268° |
| 2026-05-04 19:01 | 55.57203 | 10.01326 | 35609 ft | 413 kts | 268° |
| 2026-05-04 19:02 | 55.57118 | 9.96262 | 35928 ft | 412 kts | 268° |
| 2026-05-04 19:02 | 55.57030 | 9.91166 | 35955 ft | 417 kts | 268° |
| 2026-05-04 19:02 | 55.56848 | 9.80912 | 35973 ft | 417 kts | 268° |
| 2026-05-04 19:03 | 55.56659 | 9.70777 | 35982 ft | 410 kts | 268° |
| 2026-05-04 19:03 | 55.56462 | 9.60709 | 35996 ft | 410 kts | 268° |
| 2026-05-04 19:04 | 55.56258 | 9.50633 | 35995 ft | 410 kts | 268° |
| 2026-05-04 19:04 | 55.56045 | 9.40548 | 35997 ft | 411 kts | 268° |
| 2026-05-04 19:05 | 55.55823 | 9.30452 | 35996 ft | 411 kts | 268° |
| 2026-05-04 19:05 | 55.55593 | 9.20343 | 35997 ft | 412 kts | 267° |
| 2026-05-04 19:06 | 55.55354 | 9.10210 | 35996 ft | 413 kts | 267° |
| 2026-05-04 19:06 | 55.55107 | 9.00078 | 36001 ft | 413 kts | 267° |
| 2026-05-04 19:07 | 55.54850 | 8.89931 | 36015 ft | 414 kts | 267° |
| 2026-05-04 19:07 | 55.54586 | 8.79775 | 36016 ft | 414 kts | 267° |
| 2026-05-04 19:08 | 55.54312 | 8.69610 | 36022 ft | 414 kts | 267° |
| 2026-05-04 19:08 | 55.54030 | 8.59445 | 36022 ft | 415 kts | 267° |
| 2026-05-04 19:09 | 55.53739 | 8.49274 | 36022 ft | 415 kts | 267° |
| 2026-05-04 19:09 | 55.53440 | 8.39105 | 36022 ft | 414 kts | 267° |
| 2026-05-04 19:10 | 55.53135 | 8.29004 | 36018 ft | 414 kts | 266° |
| 2026-05-04 19:10 | 55.52819 | 8.18851 | 36016 ft | 414 kts | 266° |
| 2026-05-04 19:11 | 55.52496 | 8.08701 | 36015 ft | 414 kts | 266° |
| 2026-05-04 19:11 | 55.52164 | 7.98567 | 36012 ft | 414 kts | 266° |
| 2026-05-04 19:12 | 55.51650 | 7.83364 | 36020 ft | 413 kts | 266° |
| 2026-05-04 19:13 | 55.51298 | 7.73230 | 36019 ft | 413 kts | 266° |
| 2026-05-04 19:13 | 55.50937 | 7.63103 | 36026 ft | 413 kts | 266° |
| 2026-05-04 19:14 | 55.50567 | 7.52976 | 36022 ft | 413 kts | 266° |
| 2026-05-04 19:14 | 55.50192 | 7.42916 | 36020 ft | 413 kts | 266° |
| 2026-05-04 19:15 | 55.49803 | 7.32722 | 36023 ft | 414 kts | 266° |
| 2026-05-04 19:15 | 55.49412 | 7.22669 | 36025 ft | 414 kts | 266° |
| 2026-05-04 19:16 | 55.49009 | 7.12542 | 36027 ft | 414 kts | 266° |
| 2026-05-04 19:16 | 55.48597 | 7.02401 | 36026 ft | 415 kts | 265° |
| 2026-05-04 19:17 | 55.48247 | 6.93964 | 36026 ft | 415 kts | 265° |
| 2026-05-04 19:17 | 55.47819 | 6.83805 | 36027 ft | 416 kts | 265° |
| 2026-05-04 19:18 | 55.47381 | 6.73609 | 36030 ft | 416 kts | 265° |
| 2026-05-04 19:18 | 55.46934 | 6.63430 | 36032 ft | 416 kts | 265° |
| 2026-05-04 19:19 | 55.46480 | 6.53257 | 36031 ft | 416 kts | 265° |
| 2026-05-04 19:19 | 55.46020 | 6.43147 | 36035 ft | 416 kts | 265° |
| 2026-05-04 19:20 | 55.45548 | 6.32975 | 36031 ft | 416 kts | 265° |
| 2026-05-04 19:20 | 55.45069 | 6.22812 | 36034 ft | 416 kts | 265° |
| 2026-05-04 19:21 | 55.44581 | 6.12658 | 36032 ft | 416 kts | 265° |
| 2026-05-04 19:21 | 55.44086 | 6.02521 | 36032 ft | 416 kts | 265° |
| 2026-05-04 19:22 | 55.43581 | 5.92375 | 36032 ft | 415 kts | 265° |
| 2026-05-04 19:22 | 55.43069 | 5.82246 | 36033 ft | 415 kts | 265° |
| 2026-05-04 19:23 | 55.42549 | 5.72122 | 36033 ft | 415 kts | 264° |
| 2026-05-04 19:23 | 55.42020 | 5.61988 | 36034 ft | 415 kts | 264° |
| 2026-05-04 19:24 | 55.41483 | 5.51862 | 36035 ft | 416 kts | 264° |
| 2026-05-04 19:24 | 55.40937 | 5.41727 | 36036 ft | 416 kts | 264° |
| 2026-05-04 19:25 | 55.40382 | 5.31595 | 36034 ft | 416 kts | 264° |
| 2026-05-04 19:25 | 55.39819 | 5.21465 | 36034 ft | 416 kts | 264° |
| 2026-05-04 19:26 | 55.39249 | 5.11324 | 36034 ft | 416 kts | 264° |
| 2026-05-04 19:26 | 55.38593 | 5.01205 | 36028 ft | 417 kts | 259° |
| 2026-05-04 19:27 | 55.36774 | 4.91627 | 36039 ft | 417 kts | 248° |
| 2026-05-04 19:27 | 55.34530 | 4.82158 | 36031 ft | 417 kts | 248° |
| 2026-05-04 19:28 | 55.32323 | 4.72801 | 36036 ft | 417 kts | 248° |
| 2026-05-04 19:28 | 55.30117 | 4.63368 | 36038 ft | 418 kts | 248° |
| 2026-05-04 19:29 | 55.27910 | 4.53928 | 36041 ft | 418 kts | 248° |
| 2026-05-04 19:29 | 55.25698 | 4.44499 | 36044 ft | 418 kts | 248° |
| 2026-05-04 19:30 | 55.23473 | 4.35062 | 36045 ft | 419 kts | 248° |
| 2026-05-04 19:30 | 55.21240 | 4.25633 | 36046 ft | 419 kts | 248° |
| 2026-05-04 19:31 | 55.18995 | 4.16195 | 36046 ft | 420 kts | 248° |
| 2026-05-04 19:31 | 55.16744 | 4.06764 | 36046 ft | 420 kts | 248° |
| 2026-05-04 19:32 | 55.14491 | 3.97340 | 36047 ft | 420 kts | 249° |
| 2026-05-04 19:32 | 55.13153 | 3.87431 | 36059 ft | 420 kts | 262° |
| 2026-05-04 19:33 | 55.12402 | 3.77303 | 36045 ft | 420 kts | 263° |
| 2026-05-04 19:33 | 55.11647 | 3.67180 | 36049 ft | 420 kts | 262° |
| 2026-05-04 19:34 | 55.10860 | 3.57053 | 36049 ft | 421 kts | 262° |
| 2026-05-04 19:34 | 55.10051 | 3.46924 | 36048 ft | 421 kts | 262° |
| 2026-05-04 19:35 | 55.09230 | 3.36811 | 36044 ft | 421 kts | 262° |
| 2026-05-04 19:35 | 55.08399 | 3.26689 | 36047 ft | 421 kts | 262° |
| 2026-05-04 19:36 | 55.07561 | 3.16576 | 36044 ft | 421 kts | 262° |
| 2026-05-04 19:36 | 55.06714 | 3.06457 | 36045 ft | 421 kts | 262° |
| 2026-05-04 19:37 | 55.05863 | 2.96400 | 36046 ft | 422 kts | 262° |
| 2026-05-04 19:37 | 55.05000 | 2.86290 | 36046 ft | 422 kts | 262° |
| 2026-05-04 19:38 | 55.04126 | 2.76168 | 36047 ft | 422 kts | 261° |
| 2026-05-04 19:38 | 55.03244 | 2.66049 | 36044 ft | 422 kts | 261° |
| 2026-05-04 19:39 | 55.02353 | 2.55933 | 36044 ft | 422 kts | 261° |
| 2026-05-04 19:39 | 55.01463 | 2.45918 | 35631 ft | 413 kts | 261° |
| 2026-05-04 19:39 | 55.01019 | 2.40962 | 34975 ft | 415 kts | 261° |
| 2026-05-04 19:40 | 55.00569 | 2.35958 | 34245 ft | 420 kts | 262° |
| 2026-05-04 19:40 | 55.00112 | 2.30905 | 33457 ft | 424 kts | 261° |
| 2026-05-04 19:40 | 54.99651 | 2.25823 | 32657 ft | 427 kts | 261° |
| 2026-05-04 19:40 | 54.99183 | 2.20694 | 31862 ft | 430 kts | 261° |
| 2026-05-04 19:41 | 54.98711 | 2.15550 | 31098 ft | 432 kts | 261° |
| 2026-05-04 19:41 | 54.98233 | 2.10365 | 30318 ft | 434 kts | 261° |
| 2026-05-04 19:41 | 54.97751 | 2.05163 | 29442 ft | 436 kts | 261° |
| 2026-05-04 19:41 | 54.97272 | 2.00014 | 28552 ft | 437 kts | 261° |
| 2026-05-04 19:42 | 54.96783 | 1.94795 | 27656 ft | 437 kts | 261° |
| 2026-05-04 19:42 | 54.96292 | 1.89566 | 26736 ft | 439 kts | 261° |
| 2026-05-04 19:42 | 54.95800 | 1.84364 | 26353 ft | 432 kts | 261° |
| 2026-05-04 19:42 | 54.95308 | 1.79175 | 26231 ft | 437 kts | 261° |
| 2026-05-04 19:43 | 54.94808 | 1.73928 | 26108 ft | 442 kts | 261° |
| 2026-05-04 19:43 | 54.94302 | 1.68642 | 26048 ft | 442 kts | 261° |
| 2026-05-04 19:43 | 54.93797 | 1.63393 | 26042 ft | 440 kts | 261° |
| 2026-05-04 19:43 | 54.93289 | 1.58143 | 26039 ft | 441 kts | 261° |
| 2026-05-04 19:44 | 54.92778 | 1.52877 | 26038 ft | 441 kts | 261° |
| 2026-05-04 19:44 | 54.92264 | 1.47615 | 26038 ft | 441 kts | 261° |
| 2026-05-04 19:44 | 54.91749 | 1.42363 | 26036 ft | 441 kts | 261° |
| 2026-05-04 19:44 | 54.91230 | 1.37098 | 26041 ft | 442 kts | 261° |
| 2026-05-04 19:45 | 54.90710 | 1.31845 | 26036 ft | 442 kts | 261° |
| 2026-05-04 19:45 | 54.90187 | 1.26582 | 26038 ft | 442 kts | 261° |
| 2026-05-04 19:45 | 54.89661 | 1.21316 | 26039 ft | 442 kts | 261° |
| 2026-05-04 19:45 | 54.89134 | 1.16065 | 26030 ft | 442 kts | 261° |
| 2026-05-04 19:46 | 54.88610 | 1.10868 | 26034 ft | 442 kts | 261° |
| 2026-05-04 19:46 | 54.88078 | 1.05616 | 26030 ft | 442 kts | 260° |
| 2026-05-04 19:46 | 54.87545 | 1.00369 | 26034 ft | 442 kts | 260° |
| 2026-05-04 19:46 | 54.87008 | 0.95113 | 26040 ft | 442 kts | 260° |
| 2026-05-04 19:47 | 54.86469 | 0.89862 | 26028 ft | 442 kts | 260° |
| 2026-05-04 19:47 | 54.85927 | 0.84609 | 26036 ft | 442 kts | 260° |
| 2026-05-04 19:47 | 54.85384 | 0.79360 | 26035 ft | 442 kts | 260° |
| 2026-05-04 19:47 | 54.84837 | 0.74100 | 26035 ft | 442 kts | 260° |
| 2026-05-04 19:48 | 54.84289 | 0.68859 | 26037 ft | 442 kts | 260° |
| 2026-05-04 19:48 | 54.83739 | 0.63620 | 26033 ft | 442 kts | 260° |
| 2026-05-04 19:48 | 54.83186 | 0.58369 | 26027 ft | 442 kts | 260° |
| 2026-05-04 19:48 | 54.82632 | 0.53132 | 26035 ft | 442 kts | 260° |
| 2026-05-04 19:49 | 54.82075 | 0.47897 | 26027 ft | 442 kts | 260° |
| 2026-05-04 19:49 | 54.81515 | 0.42657 | 26025 ft | 442 kts | 260° |
| 2026-05-04 19:49 | 54.80955 | 0.37425 | 26023 ft | 442 kts | 260° |
| 2026-05-04 19:49 | 54.80391 | 0.32190 | 26026 ft | 442 kts | 260° |
| 2026-05-04 19:50 | 54.79826 | 0.26965 | 26035 ft | 441 kts | 260° |
| 2026-05-04 19:50 | 54.79258 | 0.21735 | 26029 ft | 441 kts | 260° |
| 2026-05-04 19:50 | 54.78688 | 0.16510 | 26031 ft | 441 kts | 260° |
| 2026-05-04 19:50 | 54.78116 | 0.11289 | 26024 ft | 441 kts | 260° |
| 2026-05-04 19:51 | 54.77541 | 0.06058 | 26027 ft | 441 kts | 260° |
| 2026-05-04 19:51 | 54.76965 | 0.00843 | 26024 ft | 438 kts | 259° |
| 2026-05-04 19:51 | 54.76406 | -0.04192 | 25998 ft | 410 kts | 260° |
| 2026-05-04 19:51 | 54.75883 | -0.08876 | 26001 ft | 382 kts | 259° |
| 2026-05-04 19:52 | 54.75393 | -0.13253 | 26001 ft | 359 kts | 260° |
| 2026-05-04 19:52 | 54.74928 | -0.17388 | 26009 ft | 344 kts | 260° |
| 2026-05-04 19:52 | 54.74471 | -0.21458 | 26022 ft | 348 kts | 260° |
| 2026-05-04 19:52 | 54.74010 | -0.25559 | 26039 ft | 355 kts | 259° |
| 2026-05-04 19:53 | 54.73531 | -0.29793 | 26035 ft | 361 kts | 259° |
| 2026-05-04 19:53 | 54.73048 | -0.34060 | 26021 ft | 361 kts | 259° |
| 2026-05-04 19:53 | 54.72562 | -0.38320 | 26021 ft | 361 kts | 259° |
| 2026-05-04 19:53 | 54.72076 | -0.42577 | 26019 ft | 361 kts | 259° |
| 2026-05-04 19:54 | 54.71587 | -0.46833 | 26019 ft | 360 kts | 259° |
| 2026-05-04 19:54 | 54.71098 | -0.51085 | 26018 ft | 360 kts | 259° |
| 2026-05-04 19:54 | 54.70609 | -0.55322 | 26019 ft | 359 kts | 259° |
| 2026-05-04 19:54 | 54.70122 | -0.59523 | 25903 ft | 351 kts | 259° |
| 2026-05-04 19:55 | 54.69644 | -0.63627 | 25365 ft | 347 kts | 259° |
| 2026-05-04 19:55 | 54.69168 | -0.67715 | 24694 ft | 347 kts | 259° |
| 2026-05-04 19:55 | 54.68689 | -0.71809 | 24029 ft | 347 kts | 259° |
| 2026-05-04 19:55 | 54.68210 | -0.75898 | 23417 ft | 344 kts | 259° |
| 2026-05-04 19:56 | 54.67735 | -0.79931 | 22796 ft | 340 kts | 259° |
| 2026-05-04 19:56 | 54.67266 | -0.83903 | 22200 ft | 335 kts | 259° |
| 2026-05-04 19:56 | 54.66802 | -0.87828 | 21589 ft | 332 kts | 259° |
| 2026-05-04 19:56 | 54.66340 | -0.91717 | 20996 ft | 329 kts | 259° |
| 2026-05-04 19:57 | 54.65881 | -0.95571 | 20413 ft | 326 kts | 259° |
| 2026-05-04 19:57 | 54.65425 | -0.99391 | 20165 ft | 327 kts | 259° |
| 2026-05-04 19:57 | 54.64965 | -1.03235 | 20057 ft | 326 kts | 259° |
| 2026-05-04 19:57 | 54.64506 | -1.07055 | 20026 ft | 323 kts | 259° |
| 2026-05-04 19:58 | 54.64048 | -1.10863 | 20030 ft | 325 kts | 259° |
| 2026-05-04 19:58 | 54.63593 | -1.14631 | 20022 ft | 325 kts | 258° |
| 2026-05-04 19:58 | 54.63131 | -1.18449 | 20016 ft | 325 kts | 258° |
| 2026-05-04 19:58 | 54.62667 | -1.22264 | 20016 ft | 324 kts | 258° |
| 2026-05-04 19:59 | 54.62204 | -1.26069 | 20017 ft | 324 kts | 258° |
| 2026-05-04 19:59 | 54.61733 | -1.29925 | 20019 ft | 324 kts | 258° |
| 2026-05-04 19:59 | 54.61267 | -1.33729 | 20020 ft | 324 kts | 258° |
| 2026-05-04 19:59 | 54.60799 | -1.37537 | 20023 ft | 325 kts | 258° |
| 2026-05-04 20:00 | 54.60336 | -1.41297 | 20023 ft | 325 kts | 258° |
| 2026-05-04 20:00 | 54.59865 | -1.45112 | 20024 ft | 325 kts | 258° |
| 2026-05-04 20:00 | 54.59392 | -1.48938 | 20021 ft | 326 kts | 258° |
| 2026-05-04 20:00 | 54.58918 | -1.52754 | 20024 ft | 326 kts | 258° |
| 2026-05-04 20:01 | 54.58442 | -1.56575 | 20020 ft | 326 kts | 258° |
| 2026-05-04 20:01 | 54.57964 | -1.60405 | 20020 ft | 327 kts | 258° |
| 2026-05-04 20:01 | 54.57484 | -1.64239 | 20024 ft | 327 kts | 258° |
| 2026-05-04 20:01 | 54.57004 | -1.68071 | 20023 ft | 327 kts | 258° |
| 2026-05-04 20:02 | 54.56685 | -1.70610 | 20024 ft | 327 kts | 258° |
| 2026-05-04 20:02 | 54.56202 | -1.74442 | 20025 ft | 327 kts | 258° |
| 2026-05-04 20:02 | 54.55718 | -1.78267 | 20024 ft | 327 kts | 258° |
| 2026-05-04 20:02 | 54.54923 | -1.81933 | 20020 ft | 328 kts | 238° |
| 2026-05-04 20:03 | 54.53390 | -1.84819 | 20027 ft | 329 kts | 218° |
| 2026-05-04 20:03 | 54.51384 | -1.86606 | 19748 ft | 324 kts | 197° |
| 2026-05-04 20:03 | 54.49179 | -1.87446 | 19191 ft | 325 kts | 192° |
| 2026-05-04 20:03 | 54.46952 | -1.88118 | 18567 ft | 325 kts | 191° |
| 2026-05-04 20:04 | 54.44720 | -1.88759 | 17940 ft | 324 kts | 191° |
| 2026-05-04 20:04 | 54.42508 | -1.89404 | 17361 ft | 320 kts | 192° |
| 2026-05-04 20:04 | 54.40317 | -1.90060 | 17118 ft | 321 kts | 192° |
| 2026-05-04 20:04 | 54.38122 | -1.90731 | 17048 ft | 320 kts | 192° |
| 2026-05-04 20:05 | 54.35940 | -1.91405 | 17033 ft | 317 kts | 192° |
| 2026-05-04 20:05 | 54.33764 | -1.92080 | 17027 ft | 318 kts | 192° |